HK4649G SKGY-SKQU
Flight info
| Callsign | HK4649G |
|---|---|
| Flight time | 0h 29m |
| Altitude | 11500 |
| Route | 044825N0740223W DCT 045400N0740150W 045211N0740838W 045126N0741106W 045828N0741722W DCT MQU |
| Aircraft | PA31/L-SDFGRY/S |
Departure
| Time | 2026-04-12 17:27 |
|---|---|
| Airport | Guaymaral Airport (SKGY) |
Arrival
| Time | 2026-04-12 17:56 |
|---|---|
| Airport | Mariquita Airport (SKQU) |
| Time | Latitude | Longitude | Altitude | Speed | Heading |
|---|---|---|---|---|---|
| 2026-04-12 17:03 | 4.81104 | -74.05670 | 8406 ft | 0 kts | 22° |
| 2026-04-12 17:16 | 4.81110 | -74.05667 | 8406 ft | 6 kts | 22° |
| 2026-04-12 17:17 | 4.81160 | -74.05692 | 8411 ft | 10 kts | 287° |
| 2026-04-12 17:17 | 4.81181 | -74.05784 | 8407 ft | 16 kts | 283° |
| 2026-04-12 17:17 | 4.81197 | -74.05852 | 8407 ft | 8 kts | 284° |
| 2026-04-12 17:17 | 4.81212 | -74.05913 | 8406 ft | 8 kts | 281° |
| 2026-04-12 17:18 | 4.81226 | -74.05975 | 8406 ft | 10 kts | 284° |
| 2026-04-12 17:18 | 4.81243 | -74.06049 | 8406 ft | 12 kts | 282° |
| 2026-04-12 17:18 | 4.81263 | -74.06132 | 8406 ft | 12 kts | 284° |
| 2026-04-12 17:18 | 4.81285 | -74.06222 | 8406 ft | 13 kts | 282° |
| 2026-04-12 17:19 | 4.81306 | -74.06320 | 8406 ft | 14 kts | 283° |
| 2026-04-12 17:19 | 4.81329 | -74.06416 | 8406 ft | 15 kts | 283° |
| 2026-04-12 17:19 | 4.81350 | -74.06505 | 8405 ft | 11 kts | 282° |
| 2026-04-12 17:19 | 4.81366 | -74.06576 | 8405 ft | 10 kts | 285° |
| 2026-04-12 17:20 | 4.81386 | -74.06658 | 8405 ft | 13 kts | 287° |
| 2026-04-12 17:20 | 4.81405 | -74.06732 | 8405 ft | 11 kts | 283° |
| 2026-04-12 17:20 | 4.81425 | -74.06821 | 8405 ft | 13 kts | 284° |
| 2026-04-12 17:20 | 4.81442 | -74.06898 | 8404 ft | 12 kts | 282° |
| 2026-04-12 17:21 | 4.81462 | -74.06974 | 8405 ft | 12 kts | 283° |
| 2026-04-12 17:21 | 4.81480 | -74.07056 | 8405 ft | 10 kts | 287° |
| 2026-04-12 17:21 | 4.81495 | -74.07114 | 8405 ft | 7 kts | 279° |
| 2026-04-12 17:21 | 4.81501 | -74.07144 | 8405 ft | 5 kts | 284° |
| 2026-04-12 17:22 | 4.81512 | -74.07188 | 8405 ft | 6 kts | 284° |
| 2026-04-12 17:22 | 4.81516 | -74.07234 | 8405 ft | 7 kts | 199° |
| 2026-04-12 17:22 | 4.81472 | -74.07243 | 8403 ft | 0 kts | 152° |
| 2026-04-12 17:22 | 4.81471 | -74.07243 | 8403 ft | 0 kts | 150° |
| 2026-04-12 17:25 | 4.81460 | -74.07243 | 8403 ft | 4 kts | 199° |
| 2026-04-12 17:25 | 4.81443 | -74.07250 | 8402 ft | 2 kts | 206° |
| 2026-04-12 17:25 | 4.81427 | -74.07252 | 8402 ft | 0 kts | 99° |
| 2026-04-12 17:26 | 4.81411 | -74.07179 | 8402 ft | 42 kts | 104° |
| 2026-04-12 17:26 | 4.81297 | -74.06686 | 8403 ft | 95 kts | 104° |
| 2026-04-12 17:26 | 4.81098 | -74.05977 | 8499 ft | 112 kts | 108° |
| 2026-04-12 17:26 | 4.80840 | -74.05190 | 8660 ft | 125 kts | 103° |
| 2026-04-12 17:27 | 4.80944 | -74.04318 | 8862 ft | 134 kts | 60° |
| 2026-04-12 17:27 | 4.81717 | -74.03770 | 9066 ft | 144 kts | 17° |
| 2026-04-12 17:27 | 4.82709 | -74.03639 | 9262 ft | 142 kts | 7° |
| 2026-04-12 17:27 | 4.83694 | -74.03573 | 9456 ft | 140 kts | 5° |
| 2026-04-12 17:28 | 4.84681 | -74.03500 | 9635 ft | 142 kts | 7° |
| 2026-04-12 17:28 | 4.85678 | -74.03426 | 9825 ft | 144 kts | 6° |
| 2026-04-12 17:28 | 4.86675 | -74.03355 | 10032 ft | 143 kts | 7° |
| 2026-04-12 17:28 | 4.87671 | -74.03290 | 10239 ft | 144 kts | 6° |
| 2026-04-12 17:29 | 4.88687 | -74.03221 | 10444 ft | 146 kts | 7° |
| 2026-04-12 17:29 | 4.89701 | -74.03160 | 10654 ft | 146 kts | 6° |
| 2026-04-12 17:29 | 4.90734 | -74.03136 | 10857 ft | 148 kts | 352° |
| 2026-04-12 17:29 | 4.91586 | -74.03681 | 11061 ft | 151 kts | 304° |
| 2026-04-12 17:30 | 4.91835 | -74.04686 | 11263 ft | 151 kts | 261° |
| 2026-04-12 17:30 | 4.91570 | -74.05685 | 11471 ft | 150 kts | 249° |
| 2026-04-12 17:30 | 4.91223 | -74.06725 | 11485 ft | 165 kts | 247° |
| 2026-04-12 17:30 | 4.90754 | -74.07824 | 11479 ft | 177 kts | 242° |
| 2026-04-12 17:31 | 4.90210 | -74.08954 | 11465 ft | 179 kts | 242° |
| 2026-04-12 17:31 | 4.89662 | -74.10080 | 11461 ft | 179 kts | 242° |
| 2026-04-12 17:31 | 4.89127 | -74.11196 | 11464 ft | 179 kts | 242° |
| 2026-04-12 17:31 | 4.88583 | -74.12323 | 11462 ft | 179 kts | 241° |
| 2026-04-12 17:32 | 4.88040 | -74.13456 | 11459 ft | 179 kts | 242° |
| 2026-04-12 17:32 | 4.87502 | -74.14577 | 11466 ft | 178 kts | 241° |
| 2026-04-12 17:32 | 4.86966 | -74.15706 | 11466 ft | 179 kts | 242° |
| 2026-04-12 17:32 | 4.86425 | -74.16840 | 11464 ft | 180 kts | 242° |
| 2026-04-12 17:33 | 4.85897 | -74.17976 | 11458 ft | 181 kts | 244° |
| 2026-04-12 17:33 | 4.85497 | -74.19167 | 11448 ft | 181 kts | 255° |
| 2026-04-12 17:33 | 4.85684 | -74.20398 | 11447 ft | 182 kts | 300° |
| 2026-04-12 17:33 | 4.86602 | -74.21254 | 11461 ft | 180 kts | 326° |
| 2026-04-12 17:34 | 4.87666 | -74.21915 | 11470 ft | 180 kts | 332° |
| 2026-04-12 17:34 | 4.88767 | -74.22514 | 11473 ft | 180 kts | 333° |
| 2026-04-12 17:34 | 4.89881 | -74.23121 | 11473 ft | 181 kts | 332° |
| 2026-04-12 17:34 | 4.91003 | -74.23727 | 11470 ft | 182 kts | 332° |
| 2026-04-12 17:35 | 4.92113 | -74.24332 | 11468 ft | 182 kts | 332° |
| 2026-04-12 17:35 | 4.93224 | -74.24926 | 11466 ft | 181 kts | 332° |
| 2026-04-12 17:35 | 4.94312 | -74.25568 | 11476 ft | 181 kts | 329° |
| 2026-04-12 17:35 | 4.95389 | -74.26253 | 11476 ft | 182 kts | 328° |
| 2026-04-12 17:36 | 4.96451 | -74.26955 | 11466 ft | 182 kts | 327° |
| 2026-04-12 17:36 | 4.97514 | -74.27640 | 11462 ft | 182 kts | 327° |
| 2026-04-12 17:36 | 4.98505 | -74.28450 | 11443 ft | 183 kts | 311° |
| 2026-04-12 17:36 | 4.99190 | -74.29514 | 11439 ft | 182 kts | 298° |
| 2026-04-12 17:37 | 4.99774 | -74.30650 | 11430 ft | 181 kts | 294° |
| 2026-04-12 17:37 | 5.00291 | -74.31805 | 11400 ft | 181 kts | 292° |
| 2026-04-12 17:37 | 5.00796 | -74.32955 | 11388 ft | 178 kts | 292° |
| 2026-04-12 17:37 | 5.01267 | -74.34089 | 11395 ft | 177 kts | 292° |
| 2026-04-12 17:38 | 5.01735 | -74.35227 | 11398 ft | 177 kts | 291° |
| 2026-04-12 17:38 | 5.02208 | -74.36369 | 11366 ft | 178 kts | 292° |
| 2026-04-12 17:38 | 5.02689 | -74.37529 | 11358 ft | 177 kts | 292° |
| 2026-04-12 17:38 | 5.03165 | -74.38657 | 11353 ft | 177 kts | 291° |
| 2026-04-12 17:39 | 5.03648 | -74.39799 | 11350 ft | 176 kts | 292° |
| 2026-04-12 17:39 | 5.04122 | -74.40929 | 11332 ft | 178 kts | 291° |
| 2026-04-12 17:39 | 5.04607 | -74.42084 | 11314 ft | 178 kts | 292° |
| 2026-04-12 17:39 | 5.05087 | -74.43219 | 11292 ft | 179 kts | 292° |
| 2026-04-12 17:40 | 5.05577 | -74.44373 | 11269 ft | 179 kts | 292° |
| 2026-04-12 17:40 | 5.06068 | -74.45521 | 11261 ft | 179 kts | 292° |
| 2026-04-12 17:40 | 5.06563 | -74.46677 | 11245 ft | 179 kts | 292° |
| 2026-04-12 17:40 | 5.07052 | -74.47819 | 11233 ft | 179 kts | 291° |
| 2026-04-12 17:41 | 5.07551 | -74.48964 | 11219 ft | 180 kts | 292° |
| 2026-04-12 17:41 | 5.08066 | -74.50120 | 11203 ft | 181 kts | 292° |
| 2026-04-12 17:41 | 5.08579 | -74.51270 | 11180 ft | 181 kts | 293° |
| 2026-04-12 17:41 | 5.09079 | -74.52392 | 11142 ft | 174 kts | 292° |
| 2026-04-12 17:42 | 5.09572 | -74.53504 | 10947 ft | 176 kts | 292° |
| 2026-04-12 17:42 | 5.10076 | -74.54638 | 10759 ft | 177 kts | 293° |
| 2026-04-12 17:42 | 5.10578 | -74.55756 | 10585 ft | 177 kts | 292° |
| 2026-04-12 17:43 | 5.11575 | -74.57963 | 10237 ft | 178 kts | 292° |
| 2026-04-12 17:43 | 5.12091 | -74.59094 | 10059 ft | 178 kts | 292° |
| 2026-04-12 17:43 | 5.12609 | -74.60223 | 9885 ft | 178 kts | 293° |
| 2026-04-12 17:43 | 5.13127 | -74.61350 | 9710 ft | 178 kts | 293° |
| 2026-04-12 17:44 | 5.13647 | -74.62481 | 9535 ft | 178 kts | 293° |
| 2026-04-12 17:44 | 5.14682 | -74.64741 | 9201 ft | 178 kts | 293° |
| 2026-04-12 17:44 | 5.15193 | -74.65867 | 9043 ft | 177 kts | 293° |
| 2026-04-12 17:45 | 5.15701 | -74.66981 | 8885 ft | 177 kts | 293° |
| 2026-04-12 17:45 | 5.16211 | -74.68104 | 8738 ft | 176 kts | 292° |
| 2026-04-12 17:45 | 5.16726 | -74.69228 | 8578 ft | 176 kts | 292° |
| 2026-04-12 17:45 | 5.17235 | -74.70328 | 8386 ft | 173 kts | 292° |
| 2026-04-12 17:46 | 5.17739 | -74.71420 | 8203 ft | 169 kts | 293° |
| 2026-04-12 17:46 | 5.18223 | -74.72475 | 8053 ft | 166 kts | 293° |
| 2026-04-12 17:46 | 5.18703 | -74.73525 | 7861 ft | 164 kts | 293° |
| 2026-04-12 17:46 | 5.18893 | -74.74609 | 7663 ft | 158 kts | 253° |
| 2026-04-12 17:47 | 5.18290 | -74.75479 | 7483 ft | 151 kts | 214° |
| 2026-04-12 17:47 | 5.17422 | -74.76073 | 7277 ft | 150 kts | 211° |
| 2026-04-12 17:47 | 5.16544 | -74.76646 | 7108 ft | 150 kts | 210° |
| 2026-04-12 17:47 | 5.15665 | -74.77208 | 6936 ft | 150 kts | 210° |
| 2026-04-12 17:48 | 5.14785 | -74.77769 | 6758 ft | 150 kts | 209° |
| 2026-04-12 17:48 | 5.13884 | -74.78307 | 6565 ft | 149 kts | 207° |
| 2026-04-12 17:48 | 5.12984 | -74.78837 | 6392 ft | 149 kts | 208° |
| 2026-04-12 17:48 | 5.12096 | -74.79361 | 6219 ft | 149 kts | 208° |
| 2026-04-12 17:49 | 5.11197 | -74.79881 | 6028 ft | 149 kts | 207° |
| 2026-04-12 17:49 | 5.10279 | -74.80374 | 5840 ft | 149 kts | 205° |
| 2026-04-12 17:49 | 5.09361 | -74.80869 | 5660 ft | 149 kts | 206° |
| 2026-04-12 17:49 | 5.08453 | -74.81355 | 5494 ft | 148 kts | 205° |
| 2026-04-12 17:50 | 5.07550 | -74.81866 | 5316 ft | 149 kts | 215° |
| 2026-04-12 17:50 | 5.06955 | -74.82720 | 5113 ft | 152 kts | 243° |
| 2026-04-12 17:50 | 5.06533 | -74.83695 | 4908 ft | 153 kts | 254° |
| 2026-04-12 17:50 | 5.06392 | -74.84746 | 4707 ft | 153 kts | 265° |
| 2026-04-12 17:51 | 5.06332 | -74.85821 | 4506 ft | 154 kts | 265° |
| 2026-04-12 17:51 | 5.06278 | -74.86886 | 4304 ft | 153 kts | 266° |
| 2026-04-12 17:51 | 5.06219 | -74.87958 | 4104 ft | 154 kts | 266° |
| 2026-04-12 17:51 | 5.06171 | -74.89019 | 3900 ft | 153 kts | 272° |
| 2026-04-12 17:52 | 5.06609 | -74.89955 | 3683 ft | 151 kts | 320° |
| 2026-04-12 17:52 | 5.07554 | -74.90327 | 3460 ft | 142 kts | 356° |
| 2026-04-12 17:52 | 5.08542 | -74.90282 | 3216 ft | 145 kts | 8° |
| 2026-04-12 17:52 | 5.09573 | -74.90153 | 3008 ft | 150 kts | 9° |
| 2026-04-12 17:53 | 5.10626 | -74.90044 | 2810 ft | 152 kts | 6° |
| 2026-04-12 17:53 | 5.11692 | -74.89950 | 2598 ft | 153 kts | 9° |
| 2026-04-12 17:53 | 5.12746 | -74.89796 | 2472 ft | 149 kts | 9° |
| 2026-04-12 17:53 | 5.13752 | -74.89707 | 2409 ft | 141 kts | 7° |
| 2026-04-12 17:54 | 5.14702 | -74.89606 | 2359 ft | 131 kts | 11° |
| 2026-04-12 17:54 | 5.15507 | -74.89432 | 2340 ft | 104 kts | 19° |
| 2026-04-12 17:54 | 5.16101 | -74.89119 | 2464 ft | 96 kts | 41° |
| 2026-04-12 17:54 | 5.16648 | -74.88653 | 2479 ft | 108 kts | 36° |
| 2026-04-12 17:55 | 5.17398 | -74.88443 | 2319 ft | 117 kts | 2° |
| 2026-04-12 17:55 | 5.18186 | -74.88466 | 2149 ft | 106 kts | 1° |
| 2026-04-12 17:55 | 5.18929 | -74.88458 | 2008 ft | 109 kts | 6° |
| 2026-04-12 17:55 | 5.19700 | -74.88429 | 1805 ft | 111 kts | 7° |
| 2026-04-12 17:56 | 5.20445 | -74.88405 | 1615 ft | 97 kts | 6° |
| 2026-04-12 17:56 | 5.20998 | -74.88380 | 1555 ft | 52 kts | 3° |
| 2026-04-12 17:56 | 5.21135 | -74.88377 | 1553 ft | 8 kts | 114° |
| 2026-04-12 17:56 | 5.21059 | -74.88378 | 1554 ft | 14 kts | 189° |
| 2026-04-12 17:57 | 5.20932 | -74.88379 | 1556 ft | 16 kts | 173° |
| 2026-04-12 17:57 | 5.20886 | -74.88414 | 1559 ft | 7 kts | 268° |
| 2026-04-12 17:57 | 5.20887 | -74.88467 | 1561 ft | 8 kts | 272° |
| 2026-04-12 17:57 | 5.20887 | -74.88477 | 1561 ft | 0 kts | 268° |
| 2026-04-12 17:58 | 5.20887 | -74.88485 | 1561 ft | 4 kts | 268° |
| 2026-04-12 17:58 | 5.20917 | -74.88489 | 1561 ft | 5 kts | 7° |
| 2026-04-12 17:58 | 5.20933 | -74.88499 | 1561 ft | 2 kts | 296° |
| 2026-04-12 17:59 | 5.20935 | -74.88504 | 1561 ft | 0 kts | 272° |
| 2026-04-12 17:59 | 5.20933 | -74.88509 | 1561 ft | 0 kts | 230° |
| 2026-04-12 17:59 | 5.20927 | -74.88510 | 1561 ft | 0 kts | 180° |
| 2026-04-12 18:01 | 5.20934 | -74.88510 | 1561 ft | 0 kts | 180° |
| 2026-04-12 18:01 | 5.20935 | -74.88510 | 1561 ft | 0 kts | 180° |
| 2026-04-12 18:02 | 5.20933 | -74.88510 | 1561 ft | 0 kts | 180° |